createdAt,value
2023-04-01T08:21:56.189Z,16.17
2023-04-01T08:24:48.024Z,22.85
2023-04-01T08:27:48.232Z,21.90
2023-04-01T08:35:07.074Z,18.45
2023-04-01T08:37:41.132Z,22.80
2023-04-01T08:40:47.041Z,16.17
2023-04-01T08:43:36.789Z,23.77
2023-04-01T08:46:27.857Z,15.90
2023-04-01T08:50:10.383Z,13.82
2023-04-01T08:52:58.686Z,19.08
2023-04-01T08:56:08.820Z,24.33
2023-04-01T08:59:14.328Z,18.23
2023-04-01T09:02:54.811Z,18.02
2023-04-01T09:12:13.438Z,17.27
2023-04-01T09:15:09.455Z,16.63
2023-04-01T09:18:45.525Z,18.00
2023-04-01T09:21:29.388Z,17.33
2023-04-01T09:24:37.279Z,18.95
2023-04-01T09:27:32.702Z,18.25
2023-04-01T09:30:49.941Z,16.02
2023-04-01T09:34:16.804Z,13.73
2023-04-01T09:37:37.506Z,13.93
2023-04-01T09:49:22.792Z,21.15
2023-04-01T09:52:05.727Z,13.80
2023-04-01T09:54:55.196Z,14.88
2023-04-01T09:57:39.294Z,13.02
2023-04-01T10:00:26.254Z,12.15
2023-04-01T10:03:17.992Z,10.60
2023-04-01T10:06:14.103Z,13.35
2023-04-01T10:17:50.150Z,13.23
2023-04-01T10:22:58.164Z,16.80
2023-04-01T10:25:56.019Z,18.58
2023-04-01T10:28:35.843Z,18.27
2023-04-01T10:36:45.814Z,17.17
2023-04-01T10:39:57.375Z,16.08
2023-04-01T10:43:10.360Z,19.58
2023-04-01T10:45:50.892Z,15.15
2023-04-01T10:48:56.381Z,15.55
2023-04-01T10:52:00.802Z,21.90
2023-04-01T10:55:29.383Z,20.52
2023-04-01T10:58:29.270Z,22.00
2023-04-01T11:02:12.384Z,24.83
2023-04-01T11:05:08.458Z,26.65
2023-04-01T11:08:07.384Z,19.13
2023-04-01T11:10:43.117Z,23.15
2023-04-01T11:13:34.903Z,16.23
2023-04-01T11:16:12.522Z,20.17
2023-04-01T11:19:12.814Z,24.15
2023-04-01T11:22:19.709Z,20.65
2023-04-01T11:25:13.219Z,21.00
2023-04-01T11:28:08.977Z,28.30
2023-04-01T11:30:42.260Z,20.75
2023-04-01T11:33:20.728Z,22.77
2023-04-01T11:36:12.912Z,20.23
2023-04-01T11:39:22.194Z,20.48
2023-04-01T11:42:38.321Z,20.27
2023-04-01T11:45:52.410Z,25.05
2023-04-01T11:48:54.338Z,24.27
2023-04-01T11:51:39.750Z,28.77
2023-04-01T11:54:46.085Z,26.98
2023-04-01T11:58:01.676Z,22.33
2023-04-01T12:00:55.651Z,22.67
2023-04-01T12:03:45.383Z,29.95
2023-04-01T12:06:48.537Z,28.83
2023-04-01T12:10:08.027Z,22.80
2023-04-01T12:12:58.052Z,22.17
2023-04-01T12:15:43.850Z,25.08
2023-04-01T12:18:20.372Z,26.15
2023-04-01T12:20:58.603Z,24.30
2023-04-01T12:24:09.101Z,27.35
2023-04-01T12:26:49.990Z,35.80
2023-04-01T12:29:36.134Z,35.45
2023-04-01T12:32:21.727Z,30.50
2023-04-01T12:35:08.367Z,28.73
2023-04-01T12:37:55.603Z,33.42
2023-04-01T12:40:39.361Z,29.35
2023-04-01T12:43:44.603Z,31.20
2023-04-01T12:46:36.557Z,32.58
2023-04-01T12:49:16.760Z,35.55
2023-04-01T12:52:09.905Z,30.73
2023-04-01T12:55:30.674Z,42.92
2023-04-01T12:58:25.488Z,34.35
2023-04-01T13:01:52.415Z,36.83
2023-04-01T13:04:39.295Z,36.83
2023-04-01T13:07:35.593Z,41.28
2023-04-01T13:10:29.996Z,34.30
2023-04-01T13:13:37.436Z,33.72
2023-04-01T13:16:23.097Z,30.52
2023-04-01T13:18:58.941Z,30.48
2023-04-01T13:24:32.721Z,35.88
2023-04-01T13:27:20.366Z,34.35
2023-04-01T13:29:59.676Z,30.00
2023-04-01T13:36:36.910Z,36.50
2023-04-01T13:39:08.802Z,34.65
2023-04-01T13:41:59.543Z,35.17
2023-04-01T13:44:41.481Z,39.13
2023-04-01T13:47:37.790Z,40.33
2023-04-01T13:50:26.491Z,34.97
2023-04-01T13:53:13.308Z,39.63
2023-04-01T13:56:49.150Z,34.30
2023-04-01T13:59:47.522Z,37.08
2023-04-01T14:02:56.017Z,44.80
2023-04-01T14:06:04.859Z,34.22
2023-04-01T14:09:01.323Z,31.17
2023-04-01T14:11:54.288Z,35.40
2023-04-01T14:14:28.358Z,33.58
2023-04-01T14:17:15.763Z,32.60
2023-04-01T14:20:04.373Z,23.38
2023-04-01T14:22:44.885Z,26.40
2023-04-01T14:25:37.234Z,31.17
2023-04-01T14:28:41.551Z,29.60
2023-04-01T14:31:56.741Z,35.92
2023-04-01T14:34:53.264Z,38.08
2023-04-01T14:37:24.020Z,42.05
2023-04-01T14:40:15.002Z,37.67
2023-04-01T14:43:38.741Z,33.90
2023-04-01T14:46:35.009Z,36.95
2023-04-01T14:49:36.704Z,44.47
2023-04-01T14:52:24.447Z,40.70
2023-04-01T14:54:52.967Z,32.13
2023-04-01T14:57:28.035Z,38.42
2023-04-01T15:00:03.498Z,37.50
2023-04-01T15:03:31.579Z,33.50
2023-04-01T15:06:29.020Z,36.90
2023-04-01T15:09:19.345Z,31.60
2023-04-01T15:12:20.942Z,31.10
2023-04-01T15:18:56.646Z,34.88
2023-04-01T15:21:44.530Z,29.48
2023-04-01T15:24:46.899Z,35.83
2023-04-01T15:27:19.039Z,32.10
2023-04-01T15:30:25.491Z,30.33
2023-04-01T15:33:19.554Z,25.20
2023-04-01T15:35:58.157Z,19.60
2023-04-01T15:39:14.273Z,24.23
2023-04-01T15:42:13.839Z,18.92
2023-04-01T15:44:53.400Z,21.07
2023-04-01T15:47:38.256Z,21.98
2023-04-01T16:00:27.958Z,18.88
2023-04-01T16:03:39.554Z,19.27
2023-04-01T16:06:35.640Z,17.35
2023-04-01T16:10:35.149Z,15.13
2023-04-01T16:13:46.490Z,10.35
2023-04-01T16:17:10.974Z,14.00
2023-04-01T16:20:09.855Z,16.10
2023-04-01T16:23:25.426Z,18.50
2023-04-01T16:26:44.398Z,13.30
2023-04-01T16:30:10.582Z,21.88
2023-04-01T16:33:12.221Z,15.80
2023-04-01T16:36:31.142Z,17.65
2023-04-01T16:39:41.904Z,17.40
2023-04-01T16:42:32.580Z,13.93
2023-04-01T16:45:09.984Z,12.35
2023-04-01T16:47:53.466Z,13.82
2023-04-01T16:50:32.734Z,13.77
2023-04-01T16:53:26.291Z,19.08
2023-04-01T16:56:26.603Z,15.25
2023-04-01T16:59:39.677Z,17.42
2023-04-01T17:02:15.780Z,14.65
2023-04-01T17:07:58.805Z,17.20
2023-04-01T17:11:01.440Z,22.90
2023-04-01T17:14:10.178Z,17.95
2023-04-01T17:16:49.453Z,17.75
2023-04-01T17:19:43.987Z,21.70
2023-04-01T17:22:21.140Z,16.50
2023-04-01T17:25:23.935Z,17.80
2023-04-01T17:28:10.466Z,18.95
2023-04-01T17:31:26.267Z,21.83
2023-04-01T17:34:34.318Z,22.10
2023-04-01T17:37:14.046Z,19.48
2023-04-01T17:39:47.695Z,16.60
2023-04-01T17:42:50.150Z,19.20
2023-04-01T17:45:49.428Z,21.73
2023-04-01T17:48:33.038Z,18.20
2023-04-01T17:51:35.089Z,20.55
2023-04-01T17:54:50.083Z,20.13
2023-04-01T17:57:58.560Z,20.85
2023-04-01T18:00:54.966Z,15.30
2023-04-01T18:03:43.682Z,15.57
2023-04-01T18:06:28.235Z,14.48
2023-04-01T18:09:40.239Z,19.48
2023-04-01T18:13:50.216Z,24.40
2023-04-01T18:16:55.330Z,25.65
2023-04-01T18:19:47.792Z,24.70
2023-04-01T18:22:23.361Z,20.55
2023-04-01T18:25:15.124Z,23.60
2023-04-01T18:27:46.057Z,11.98
2023-04-01T18:30:23.442Z,14.60
2023-04-01T18:33:24.730Z,15.88
2023-04-01T18:36:13.787Z,14.52
2023-04-01T18:39:03.498Z,23.38
2023-04-01T18:41:43.926Z,17.00
2023-04-01T18:44:49.743Z,18.20
2023-04-01T18:47:27.393Z,23.70
2023-04-01T18:50:27.094Z,18.40
2023-04-01T18:53:30.493Z,19.00
2023-04-01T18:56:10.281Z,12.90
2023-04-01T18:59:15.403Z,16.13
2023-04-01T19:02:17.348Z,16.17
2023-04-01T19:05:09.433Z,11.30
2023-04-01T19:08:24.846Z,17.27
2023-04-01T19:10:57.151Z,18.23
2023-04-01T19:13:45.918Z,17.35
2023-04-01T19:17:03.582Z,16.15
2023-04-01T19:19:46.311Z,16.52
2023-04-01T19:22:32.378Z,13.95
2023-04-01T19:25:11.229Z,16.23
2023-04-01T19:28:00.611Z,15.15
2023-04-01T19:31:14.838Z,19.88
2023-04-01T19:34:00.757Z,14.25
2023-04-01T19:37:05.472Z,19.50
2023-04-01T19:39:50.277Z,15.43
2023-04-01T19:43:07.593Z,17.13
2023-04-01T19:46:06.172Z,16.08
2023-04-01T19:48:51.118Z,17.90
2023-04-01T19:51:42.151Z,26.70
2023-04-01T19:54:29.061Z,16.83
2023-04-01T20:00:01.366Z,20.60
2023-04-01T20:02:48.335Z,23.98
2023-04-01T20:05:22.396Z,13.60
2023-04-01T20:07:57.504Z,18.10
2023-04-01T20:10:49.577Z,19.48
2023-04-01T20:13:38.229Z,17.70
2023-04-01T20:16:51.189Z,19.63
2023-04-01T20:19:53.672Z,25.00
2023-04-01T20:22:34.404Z,17.17
2023-04-01T20:25:42.523Z,17.75
2023-04-01T20:28:21.553Z,13.85
2023-04-01T20:31:14.314Z,13.73
2023-04-01T20:34:11.544Z,17.77
2023-04-01T20:37:08.496Z,17.25
2023-04-01T20:40:03.608Z,13.85
2023-04-01T20:42:58.577Z,18.58
2023-04-01T20:45:50.269Z,17.27
2023-04-01T20:48:57.822Z,14.52
2023-04-01T20:51:36.147Z,20.75
2023-04-01T20:54:47.065Z,22.33
2023-04-01T20:57:27.551Z,17.75
2023-04-01T21:00:10.701Z,22.25
2023-04-01T21:02:47.728Z,25.67
2023-04-01T21:05:55.280Z,19.58
2023-04-01T21:08:31.083Z,28.17
2023-04-01T21:11:24.858Z,15.60
2023-04-01T21:14:32.111Z,20.75
2023-04-01T21:17:10.061Z,19.80
2023-04-01T21:20:07.775Z,16.63
2023-04-01T21:22:55.488Z,12.60
2023-04-01T21:25:45.180Z,18.02
2023-04-01T21:28:20.492Z,24.25
2023-04-01T21:31:00.069Z,22.35
2023-04-01T21:33:47.992Z,23.45
2023-04-01T21:36:38.368Z,16.27
2023-04-01T21:42:06.660Z,15.27
2023-04-01T21:44:46.909Z,13.60
2023-04-01T21:47:35.731Z,15.88
2023-04-01T21:50:27.084Z,18.25
2023-04-01T21:53:20.486Z,17.75
2023-04-01T21:56:25.569Z,19.55
2023-04-01T21:59:37.247Z,11.45
2023-04-01T22:02:05.319Z,14.13
2023-04-01T22:04:54.266Z,15.43
2023-04-01T22:07:27.430Z,19.25
2023-04-01T22:10:14.563Z,15.95
2023-04-01T22:13:19.770Z,12.95
2023-04-01T22:16:16.539Z,19.90
2023-04-01T22:18:53.673Z,21.58
2023-04-01T22:21:28.366Z,15.85
2023-04-01T22:24:19.595Z,18.17
2023-04-01T22:27:18.400Z,9.90
2023-04-01T22:30:11.302Z,13.27
2023-04-01T22:32:48.178Z,16.13
2023-04-01T22:35:32.545Z,16.63
2023-04-01T22:38:16.154Z,16.05
2023-04-01T22:41:03.315Z,19.63
2023-04-01T22:43:40.934Z,22.15
2023-04-01T22:46:40.556Z,13.23
2023-04-01T22:49:23.941Z,11.93
2023-04-01T22:52:15.769Z,16.58
2023-04-01T22:54:55.138Z,21.38
2023-04-01T22:57:53.100Z,12.05
2023-04-01T23:00:33.444Z,12.80
2023-04-01T23:03:13.302Z,12.82
2023-04-01T23:05:47.651Z,15.07
2023-04-01T23:08:48.368Z,11.75
2023-04-01T23:12:11.248Z,12.50
2023-04-01T23:15:14.108Z,12.80
2023-04-01T23:17:49.905Z,13.80
2023-04-01T23:20:49.098Z,22.42
2023-04-01T23:23:43.036Z,11.48
2023-04-01T23:26:44.509Z,11.77
2023-04-01T23:29:19.570Z,12.15
2023-04-01T23:31:48.724Z,16.42
2023-04-01T23:34:25.139Z,13.60
2023-04-01T23:36:59.788Z,21.38
2023-04-01T23:39:48.424Z,20.42
2023-04-01T23:42:34.400Z,15.52
2023-04-01T23:45:07.175Z,18.40
2023-04-01T23:47:39.109Z,16.50
2023-04-01T23:50:18.916Z,16.88
2023-04-01T23:52:49.890Z,18.30
2023-04-01T23:55:27.288Z,15.43
2023-04-01T23:58:21.218Z,22.05
